Time;durP1;ratioP1;P1;durP2;ratioP2;P2;SDS_P1;SDS_P2;PMS_P1;PMS_P2;Temp;Humidity;BMP_temperature;BMP_pressure;BME280_temperature;BME280_humidity;BME280_pressure;Samples;Min_cycle;Max_cycle;Signal;HPM_P1;HPM_P2
2022/09/04 00:01:35;;;;;;;4.53;3.43;;;;;;;;;;5052965;28;20465;-79
2022/09/04 00:04:10;;;;;;;7.40;3.50;;;;;;;;;;5053212;28;20976;-80
2022/09/04 00:06:48;;;;;;;3.63;3.30;;;;;;;;;;5053118;28;20425;-80
2022/09/04 00:09:18;;;;;;;3.20;2.90;;;;;;;;;;5051807;28;20490;-80
2022/09/04 00:11:50;;;;;;;3.57;2.97;;;;;;;;;;5052914;28;20439;-79
2022/09/04 00:14:21;;;;;;;6.23;2.60;;;;;;;;;;5053343;28;20431;-80
2022/09/04 00:16:51;;;;;;;2.90;2.70;;;;;;;;;;5053438;28;20445;-79
2022/09/04 00:19:26;;;;;;;3.20;2.70;;;;;;;;;;5052809;28;20489;-79
2022/09/04 00:21:57;;;;;;;3.10;2.80;;;;;;;;;;5053399;28;20422;-79
2022/09/04 00:24:25;;;;;;;3.70;2.93;;;;;;;;;;5053200;28;20505;-77
2022/09/04 00:26:56;;;;;;;3.73;3.33;;;;;;;;;;5052896;28;20527;-78
2022/09/04 00:29:30;;;;;;;3.27;3.07;;;;;;;;;;5052613;28;20444;-78
2022/09/04 00:32:02;;;;;;;4.17;3.63;;;;;;;;;;5052491;28;20437;-76
2022/09/04 00:34:41;;;;;;;5.00;3.30;;;;;;;;;;5052354;28;20482;-78
2022/09/04 00:37:11;;;;;;;4.53;3.50;;;;;;;;;;5052317;28;20514;-78
2022/09/04 00:39:41;;;;;;;3.00;2.70;;;;;;;;;;5052978;28;20492;-78
2022/09/04 00:42:14;;;;;;;6.43;3.60;;;;;;;;;;5053494;28;20437;-78
2022/09/04 00:44:48;;;;;;;3.40;3.10;;;;;;;;;;5053287;28;20770;-78
2022/09/04 00:47:37;;;;;;;3.13;2.90;;;;;;;;;;5053762;28;20512;-78
2022/09/04 00:50:17;;;;;;;7.70;3.40;;;;;;;;;;5049307;28;20451;-78
2022/09/04 00:52:53;;;;;;;3.30;3.00;;;;;;;;;;5052628;28;20429;-77
2022/09/04 00:55:28;;;;;;;4.00;3.70;;;;;;;;;;5053291;28;20803;-79
2022/09/04 00:58:11;;;;;;;2.80;2.60;;;;;;;;;;5052773;28;20434;-78
2022/09/04 01:00:40;;;;;;;5.07;3.63;;;;;;;;;;5052579;28;20995;-77
2022/09/04 01:03:37;;;;;;;3.10;2.90;;;;;;;;;;5036088;28;20507;-78
2022/09/04 01:06:23;;;;;;;2.80;2.60;;;;;;;;;;4971758;28;20450;-78
2022/09/04 01:09:00;;;;;;;3.63;3.37;;;;;;;;;;5029312;28;20490;-79
2022/09/04 01:11:31;;;;;;;3.57;2.80;;;;;;;;;;5032801;28;20435;-78
2022/09/04 01:14:04;;;;;;;4.87;3.43;;;;;;;;;;5033132;28;20465;-79
2022/09/04 01:16:34;;;;;;;3.30;3.10;;;;;;;;;;5032692;28;20427;-79
2022/09/04 01:19:05;;;;;;;2.90;2.70;;;;;;;;;;5032831;28;20507;-79
2022/09/04 01:21:50;;;;;;;7.20;4.37;;;;;;;;;;5033527;28;20527;-79
2022/09/04 01:24:45;;;;;;;4.23;3.50;;;;;;;;;;5029426;28;20458;-78
2022/09/04 01:27:16;;;;;;;3.53;3.13;;;;;;;;;;5012119;28;20458;-77
2022/09/04 01:29:47;;;;;;;3.97;3.53;;;;;;;;;;5036190;28;20449;-77
2022/09/04 01:32:23;;;;;;;3.67;3.47;;;;;;;;;;5036985;28;20532;-78
2022/09/04 01:34:53;;;;;;;4.47;3.30;;;;;;;;;;5036215;28;20954;-78
2022/09/04 01:37:26;;;;;;;4.70;3.93;;;;;;;;;;5036169;28;20523;-78
2022/09/04 01:40:01;;;;;;;9.30;3.77;;;;;;;;;;5035732;28;20488;-77
2022/09/04 01:42:35;;;;;;;4.30;3.63;;;;;;;;;;5035783;28;20510;-77
2022/09/04 01:45:03;;;;;;;6.17;3.67;;;;;;;;;;5035911;28;20488;-77
2022/09/04 01:47:34;;;;;;;3.50;3.30;;;;;;;;;;5035587;28;20438;-77
2022/09/04 01:50:03;;;;;;;3.53;3.23;;;;;;;;;;5035511;28;20981;-77
2022/09/04 01:52:37;;;;;;;4.23;3.93;;;;;;;;;;5036143;28;20545;-77
2022/09/04 01:55:11;;;;;;;5.23;3.37;;;;;;;;;;5035563;28;20420;-78
2022/09/04 01:57:47;;;;;;;3.17;2.97;;;;;;;;;;5036315;28;20524;-78
2022/09/04 02:00:15;;;;;;;3.73;3.43;;;;;;;;;;5035243;28;20559;-78
2022/09/04 02:02:56;;;;;;;3.50;3.10;;;;;;;;;;5051420;28;20515;-78
2022/09/04 02:05:30;;;;;;;4.20;3.40;;;;;;;;;;5055083;28;20517;-78
2022/09/04 02:08:05;;;;;;;8.03;3.03;;;;;;;;;;5054983;28;20425;-78
2022/09/04 02:10:36;;;;;;;4.30;3.03;;;;;;;;;;5055100;28;20471;-78
2022/09/04 02:13:13;;;;;;;3.40;2.80;;;;;;;;;;5054977;28;20523;-77
2022/09/04 02:15:44;;;;;;;3.27;3.07;;;;;;;;;;5054657;28;20545;-76
2022/09/04 02:18:18;;;;;;;8.10;3.53;;;;;;;;;;5054524;28;20431;-77
2022/09/04 02:20:51;;;;;;;3.27;3.07;;;;;;;;;;5054487;28;20465;-77
2022/09/04 02:23:23;;;;;;;3.10;2.90;;;;;;;;;;5054883;28;20933;-78
2022/09/04 02:25:54;;;;;;;3.73;3.43;;;;;;;;;;5055208;28;20436;-78
2022/09/04 02:28:30;;;;;;;3.63;3.00;;;;;;;;;;5055649;28;20454;-79
2022/09/04 02:31:02;;;;;;;4.03;3.23;;;;;;;;;;5055284;28;20449;-79
2022/09/04 02:33:34;;;;;;;3.80;3.50;;;;;;;;;;5053585;28;20519;-79
2022/09/04 02:36:06;;;;;;;3.67;3.30;;;;;;;;;;5055198;28;20423;-79
2022/09/04 02:38:36;;;;;;;4.73;3.23;;;;;;;;;;5055116;28;20444;-78
2022/09/04 02:41:06;;;;;;;7.67;3.30;;;;;;;;;;5054394;28;20467;-79
2022/09/04 02:43:44;;;;;;;3.23;2.93;;;;;;;;;;5054909;28;20874;-79
2022/09/04 02:46:15;;;;;;;3.57;3.27;;;;;;;;;;5054995;28;20530;-78
2022/09/04 02:48:47;;;;;;;8.87;3.20;;;;;;;;;;5054427;28;20445;-77
2022/09/04 02:51:20;;;;;;;4.83;3.17;;;;;;;;;;5054643;28;20437;-78
2022/09/04 02:53:52;;;;;;;3.13;2.90;;;;;;;;;;5054608;28;20426;-79
2022/09/04 02:56:25;;;;;;;3.13;2.90;;;;;;;;;;5054283;28;20514;-78
2022/09/04 02:59:02;;;;;;;3.90;3.60;;;;;;;;;;5054655;28;20527;-78
2022/09/04 03:01:33;;;;;;;3.80;3.50;;;;;;;;;;5050827;28;20912;-78
2022/09/04 03:04:03;;;;;;;4.73;3.40;;;;;;;;;;5035316;28;20427;-78
2022/09/04 03:06:40;;;;;;;3.27;3.03;;;;;;;;;;5034093;28;21006;-78
2022/09/04 03:09:11;;;;;;;4.33;3.70;;;;;;;;;;5035587;28;20584;-78
2022/09/04 03:11:41;;;;;;;6.23;3.37;;;;;;;;;;5034686;28;20518;-78
2022/09/04 03:14:13;;;;;;;3.80;3.43;;;;;;;;;;5034639;28;20530;-78
2022/09/04 03:16:43;;;;;;;4.27;3.53;;;;;;;;;;5034814;28;20794;-78
2022/09/04 03:19:14;;;;;;;6.23;3.50;;;;;;;;;;5034628;28;20429;-78
2022/09/04 03:21:45;;;;;;;4.30;3.20;;;;;;;;;;5034414;28;20486;-77
2022/09/04 03:24:16;;;;;;;4.03;3.40;;;;;;;;;;5034444;28;20517;-78
2022/09/04 03:26:45;;;;;;;3.50;3.20;;;;;;;;;;5034311;28;20469;-78
2022/09/04 03:29:20;;;;;;;3.83;3.60;;;;;;;;;;5033795;28;20449;-78
2022/09/04 03:31:51;;;;;;;3.30;3.00;;;;;;;;;;5034428;28;20457;-78
2022/09/04 03:34:34;;;;;;;3.60;3.30;;;;;;;;;;5034596;28;20533;-79
2022/09/04 03:37:09;;;;;;;4.37;2.83;;;;;;;;;;5033745;28;20426;-78
2022/09/04 03:39:40;;;;;;;4.33;3.10;;;;;;;;;;5034170;28;20494;-79
2022/09/04 03:42:13;;;;;;;3.33;3.03;;;;;;;;;;5033775;28;20525;-79
2022/09/04 03:44:47;;;;;;;3.73;3.43;;;;;;;;;;5033242;28;20523;-79
2022/09/04 03:47:18;;;;;;;3.57;3.27;;;;;;;;;;5033926;28;20463;-79
2022/09/04 03:49:51;;;;;;;3.73;3.40;;;;;;;;;;5034095;28;20524;-79
2022/09/04 03:52:23;;;;;;;6.70;3.70;;;;;;;;;;5033712;28;20419;-80
2022/09/04 03:54:53;;;;;;;4.30;3.60;;;;;;;;;;5033788;28;20422;-79
2022/09/04 03:57:27;;;;;;;4.53;3.97;;;;;;;;;;5033322;28;20509;-80
2022/09/04 04:00:03;;;;;;;4.40;3.83;;;;;;;;;;5033643;28;20553;-79
2022/09/04 04:02:35;;;;;;;3.70;3.50;;;;;;;;;;5033570;28;20431;-80
2022/09/04 04:05:17;;;;;;;4.07;3.70;;;;;;;;;;5034091;28;20763;-79
2022/09/04 04:07:52;;;;;;;7.43;3.80;;;;;;;;;;5033945;28;20514;-80
2022/09/04 04:10:29;;;;;;;4.10;3.43;;;;;;;;;;5033798;28;20509;-80
2022/09/04 04:13:12;;;;;;;3.57;3.27;;;;;;;;;;5033619;28;20440;-79
2022/09/04 04:15:50;;;;;;;4.27;3.97;;;;;;;;;;5047372;28;20541;-80
2022/09/04 04:18:39;;;;;;;4.67;3.67;;;;;;;;;;5052773;28;20434;-79
2022/09/04 04:21:09;;;;;;;3.80;3.50;;;;;;;;;;5052274;28;20480;-79
2022/09/04 04:23:56;;;;;;;5.57;4.00;;;;;;;;;;5051963;28;20443;-78
2022/09/04 04:26:30;;;;;;;4.37;3.70;;;;;;;;;;5052724;28;20430;-79
2022/09/04 04:29:23;;;;;;;4.80;4.40;;;;;;;;;;5052471;28;20914;-79
2022/09/04 04:32:10;;;;;;;4.90;4.10;;;;;;;;;;5038276;28;20830;-79
2022/09/04 04:34:41;;;;;;;4.47;4.17;;;;;;;;;;5053070;28;20449;-79
2022/09/04 04:37:10;;;;;;;4.70;4.30;;;;;;;;;;5052614;28;20417;-78
2022/09/04 04:39:40;;;;;;;5.53;4.30;;;;;;;;;;5052504;28;20533;-79
2022/09/04 04:42:18;;;;;;;6.57;4.73;;;;;;;;;;5053440;28;20510;-78
2022/09/04 04:47:55;;;;;;;4.70;4.27;;;;;;;;;;5051956;28;20399;-77
2022/09/04 04:50:27;;;;;;;4.40;4.10;;;;;;;;;;5051530;28;20519;-78
2022/09/04 04:52:59;;;;;;;4.80;4.30;;;;;;;;;;5052315;28;20468;-78
2022/09/04 04:55:37;;;;;;;5.83;4.20;;;;;;;;;;5051768;28;20442;-77
2022/09/04 04:58:19;;;;;;;4.13;3.80;;;;;;;;;;5054314;28;20468;-78
2022/09/04 05:00:48;;;;;;;6.33;4.80;;;;;;;;;;5053865;28;20512;-78
2022/09/04 05:03:22;;;;;;;4.73;4.33;;;;;;;;;;5056152;28;20448;-77
2022/09/04 05:05:54;;;;;;;5.23;4.73;;;;;;;;;;5056232;28;20522;-78
2022/09/04 05:08:27;;;;;;;4.77;4.37;;;;;;;;;;5055786;28;20409;-79
2022/09/04 05:10:56;;;;;;;7.13;4.30;;;;;;;;;;5056243;28;20431;-78
2022/09/04 05:13:27;;;;;;;6.43;4.97;;;;;;;;;;5055592;28;20525;-77
2022/09/04 05:16:00;;;;;;;6.77;4.60;;;;;;;;;;5039796;28;20436;-79
2022/09/04 05:18:31;;;;;;;4.77;4.20;;;;;;;;;;5036121;28;20438;-78
2022/09/04 05:21:00;;;;;;;4.57;4.27;;;;;;;;;;5036470;28;20557;-80
2022/09/04 05:23:32;;;;;;;5.00;4.53;;;;;;;;;;5036388;28;20455;-79
2022/09/04 05:26:01;;;;;;;4.80;4.20;;;;;;;;;;5036190;28;20435;-80
2022/09/04 05:28:33;;;;;;;8.47;4.67;;;;;;;;;;5036499;28;20444;-75
2022/09/04 05:31:13;;;;;;;6.90;4.60;;;;;;;;;;5036625;28;20522;-80
2022/09/04 05:33:45;;;;;;;5.13;4.73;;;;;;;;;;5036152;28;20432;-78
2022/09/04 05:36:17;;;;;;;6.77;5.53;;;;;;;;;;5036049;28;20431;-76
2022/09/04 05:38:47;;;;;;;9.27;4.87;;;;;;;;;;5035370;28;20451;-77
2022/09/04 05:41:19;;;;;;;6.80;4.80;;;;;;;;;;5035819;28;20476;-77
2022/09/04 05:43:54;;;;;;;6.43;4.60;;;;;;;;;;5035641;28;20429;-76
2022/09/04 05:46:29;;;;;;;5.97;5.03;;;;;;;;;;5036192;28;20793;-78
2022/09/04 05:49:01;;;;;;;6.07;5.50;;;;;;;;;;5036006;28;20536;-75
2022/09/04 05:51:36;;;;;;;8.67;5.77;;;;;;;;;;5035679;28;20533;-76
2022/09/04 05:54:18;;;;;;;5.07;4.53;;;;;;;;;;5036258;28;20762;-76
2022/09/04 05:56:50;;;;;;;6.63;5.00;;;;;;;;;;5003273;28;20443;-76
2022/09/04 05:59:35;;;;;;;5.97;4.50;;;;;;;;;;5034989;28;20615;-78
2022/09/04 06:02:12;;;;;;;5.40;4.93;;;;;;;;;;5035287;28;20672;-76
2022/09/04 06:04:54;;;;;;;5.70;5.20;;;;;;;;;;5035687;28;20812;-76
2022/09/04 06:07:27;;;;;;;5.17;4.70;;;;;;;;;;5033393;28;20852;-77
2022/09/04 06:10:00;;;;;;;7.47;4.80;;;;;;;;;;5035139;28;20830;-77
2022/09/04 06:12:35;;;;;;;4.57;4.17;;;;;;;;;;5041894;28;20994;-77
2022/09/04 06:15:17;;;;;;;5.40;4.90;;;;;;;;;;5053049;28;20961;-77
2022/09/04 06:18:01;;;;;;;4.70;4.30;;;;;;;;;;5055159;28;20897;-76
2022/09/04 06:20:34;;;;;;;4.93;4.63;;;;;;;;;;5054862;28;20883;-77
2022/09/04 06:23:09;;;;;;;5.27;4.77;;;;;;;;;;5054922;28;20436;-77
2022/09/04 06:25:58;;;;;;;5.43;4.93;;;;;;;;;;5055111;28;20464;-77
2022/09/04 06:28:43;;;;;;;6.13;4.17;;;;;;;;;;5055536;28;20453;-78
2022/09/04 06:31:14;;;;;;;4.93;4.53;;;;;;;;;;5055421;28;20447;-78
2022/09/04 06:33:57;;;;;;;10.90;4.80;;;;;;;;;;5054616;28;20521;-77
2022/09/04 06:36:39;;;;;;;6.57;4.50;;;;;;;;;;5055138;28;20840;-77
2022/09/04 06:39:16;;;;;;;5.83;4.97;;;;;;;;;;5052324;28;20560;-78
2022/09/04 06:41:50;;;;;;;6.33;5.37;;;;;;;;;;5054698;28;20482;-78
2022/09/04 06:44:20;;;;;;;6.40;5.80;;;;;;;;;;5054550;28;20469;-78
2022/09/04 06:46:52;;;;;;;5.90;4.80;;;;;;;;;;5055318;28;20840;-78
2022/09/04 06:49:22;;;;;;;5.60;4.20;;;;;;;;;;5054375;28;20513;-79
2022/09/04 06:51:57;;;;;;;5.63;5.13;;;;;;;;;;5054296;28;20935;-79
2022/09/04 06:54:32;;;;;;;7.90;4.80;;;;;;;;;;5054260;28;20426;-79
2022/09/04 06:57:07;;;;;;;8.20;5.10;;;;;;;;;;5054868;28;20798;-79
2022/09/04 06:59:58;;;;;;;5.43;4.40;;;;;;;;;;5054827;28;20436;-79
2022/09/04 07:02:32;;;;;;;5.40;4.87;;;;;;;;;;5039572;28;20515;-79
2022/09/04 07:05:08;;;;;;;9.73;4.33;;;;;;;;;;5054101;28;20516;-79
2022/09/04 07:07:39;;;;;;;5.50;4.83;;;;;;;;;;5054677;28;20787;-79
2022/09/04 07:10:09;;;;;;;4.33;4.00;;;;;;;;;;5054440;28;20570;-78
2022/09/04 07:12:56;;;;;;;4.20;3.80;;;;;;;;;;5053881;28;20936;-78
2022/09/04 07:15:41;;;;;;;5.67;4.77;;;;;;;;;;5054538;28;20453;-77
2022/09/04 07:18:13;;;;;;;7.57;4.70;;;;;;;;;;5053864;28;20477;-78
2022/09/04 07:20:47;;;;;;;4.77;4.33;;;;;;;;;;5053581;28;20774;-76
2022/09/04 07:23:22;;;;;;;4.77;4.20;;;;;;;;;;5053830;28;20426;-78
2022/09/04 07:25:58;;;;;;;7.53;4.50;;;;;;;;;;5054247;28;20429;-77
2022/09/04 07:28:42;;;;;;;4.30;4.00;;;;;;;;;;5054222;28;20426;-78
2022/09/04 07:31:12;;;;;;;5.23;4.63;;;;;;;;;;5054005;28;20464;-78
2022/09/04 07:33:43;;;;;;;4.53;4.10;;;;;;;;;;5053677;28;20475;-78
2022/09/04 07:36:15;;;;;;;4.70;4.30;;;;;;;;;;5053622;28;20521;-78
2022/09/04 07:38:47;;;;;;;5.27;4.77;;;;;;;;;;5053890;28;20449;-79
2022/09/04 07:41:18;;;;;;;7.73;4.90;;;;;;;;;;5053700;28;20499;-79
2022/09/04 07:43:50;;;;;;;5.83;5.03;;;;;;;;;;5053023;28;20432;-79
2022/09/04 07:46:21;;;;;;;5.03;4.53;;;;;;;;;;5052964;28;20469;-77
2022/09/04 07:48:52;;;;;;;4.50;4.10;;;;;;;;;;5054060;28;20462;-78
2022/09/04 07:51:24;;;;;;;4.53;4.23;;;;;;;;;;5053519;28;20791;-77
2022/09/04 07:54:11;;;;;;;8.13;4.57;;;;;;;;;;5053526;28;20422;-78
2022/09/04 07:56:48;;;;;;;4.43;4.03;;;;;;;;;;5053146;28;20432;-78
2022/09/04 07:59:32;;;;;;;5.43;3.83;;;;;;;;;;5053347;28;20407;-78
2022/09/04 08:02:06;;;;;;;4.23;3.83;;;;;;;;;;5053345;28;20506;-78
2022/09/04 08:04:49;;;;;;;4.47;4.07;;;;;;;;;;5052894;28;20436;-78
2022/09/04 08:07:20;;;;;;;6.73;4.90;;;;;;;;;;5053061;28;20440;-79
2022/09/04 08:10:02;;;;;;;5.63;4.97;;;;;;;;;;5053272;28;20489;-74
2022/09/04 08:12:47;;;;;;;4.50;3.70;;;;;;;;;;5051051;28;20459;-76
2022/09/04 08:15:20;;;;;;;5.80;5.30;;;;;;;;;;5052908;28;20455;-77
2022/09/04 08:18:00;;;;;;;7.20;5.03;;;;;;;;;;5053066;28;20512;-76
2022/09/04 08:20:42;;;;;;;4.30;3.90;;;;;;;;;;5053048;28;20498;-76
2022/09/04 08:23:17;;;;;;;5.57;3.90;;;;;;;;;;5051370;28;20570;-76
2022/09/04 08:25:51;;;;;;;4.57;4.17;;;;;;;;;;5052742;28;20460;-74
2022/09/04 08:28:32;;;;;;;5.10;4.33;;;;;;;;;;5053119;28;20515;-76
2022/09/04 08:31:06;;;;;;;5.77;4.40;;;;;;;;;;5054486;28;20482;-76
2022/09/04 08:33:51;;;;;;;8.87;4.50;;;;;;;;;;5057663;28;20511;-76
2022/09/04 08:36:23;;;;;;;4.20;3.90;;;;;;;;;;5057215;28;20433;-76
2022/09/04 08:38:55;;;;;;;4.57;4.13;;;;;;;;;;5057374;28;20475;-75
2022/09/04 08:41:53;;;;;;;4.40;4.10;;;;;;;;;;5057503;28;20558;-76
2022/09/04 08:44:38;;;;;;;5.40;5.00;;;;;;;;;;5056784;28;20439;-75
2022/09/04 08:47:23;;;;;;;6.07;4.73;;;;;;;;;;5057029;28;20469;-76
2022/09/04 08:50:06;;;;;;;6.70;5.47;;;;;;;;;;5057103;28;20437;-76
2022/09/04 08:52:51;;;;;;;4.93;4.53;;;;;;;;;;5057048;28;20944;-76
2022/09/04 08:55:33;;;;;;;4.70;4.30;;;;;;;;;;5056550;28;20431;-75
2022/09/04 08:58:18;;;;;;;4.63;4.07;;;;;;;;;;5056669;28;20452;-76
2022/09/04 09:00:56;;;;;;;4.80;4.40;;;;;;;;;;5056373;28;20449;-76
2022/09/04 09:03:50;;;;;;;4.60;4.20;;;;;;;;;;5056445;28;20503;-76
2022/09/04 09:06:49;;;;;;;5.10;4.70;;;;;;;;;;5020256;28;20484;-76
2022/09/04 09:09:41;;;;;;;5.40;4.90;;;;;;;;;;5056072;28;20563;-76
2022/09/04 09:12:25;;;;;;;10.27;6.07;;;;;;;;;;5056732;28;20480;-76
2022/09/04 09:15:14;;;;;;;6.77;4.90;;;;;;;;;;5056707;28;20444;-76
2022/09/04 09:17:49;;;;;;;4.17;3.87;;;;;;;;;;5051562;28;20519;-78
2022/09/04 09:20:27;;;;;;;5.70;4.50;;;;;;;;;;5056581;28;20463;-77
2022/09/04 09:23:19;;;;;;;4.53;4.17;;;;;;;;;;5056344;28;20548;-77
2022/09/04 09:25:50;;;;;;;4.27;3.90;;;;;;;;;;5056151;28;20516;-77
2022/09/04 09:28:42;;;;;;;7.17;4.13;;;;;;;;;;5055699;28;20451;-77
2022/09/04 09:31:28;;;;;;;4.33;3.93;;;;;;;;;;5055842;28;20456;-73
2022/09/04 09:34:10;;;;;;;4.97;4.50;;;;;;;;;;5056264;28;20499;-71
2022/09/04 09:36:49;;;;;;;4.17;3.77;;;;;;;;;;5056900;28;20476;-71
2022/09/04 09:39:34;;;;;;;5.77;4.93;;;;;;;;;;5056124;28;20548;-71
2022/09/04 09:42:16;;;;;;;4.53;4.00;;;;;;;;;;5055077;28;20552;-72
2022/09/04 09:45:02;;;;;;;3.77;3.47;;;;;;;;;;5055620;28;20919;-72
2022/09/04 09:47:47;;;;;;;5.20;3.90;;;;;;;;;;5055278;28;20532;-73
2022/09/04 09:50:29;;;;;;;3.90;3.60;;;;;;;;;;5056318;28;20511;-72
2022/09/04 09:53:11;;;;;;;3.50;3.30;;;;;;;;;;5055643;28;20921;-72
2022/09/04 09:55:58;;;;;;;4.43;4.13;;;;;;;;;;5056026;28;20521;-73
2022/09/04 09:58:49;;;;;;;3.60;3.30;;;;;;;;;;5055716;28;20434;-73
2022/09/04 10:01:32;;;;;;;3.90;3.60;;;;;;;;;;5055847;28;20505;-72
2022/09/04 10:04:21;;;;;;;3.97;2.90;;;;;;;;;;5056031;28;20431;-72
2022/09/04 10:07:03;;;;;;;5.03;3.40;;;;;;;;;;5055113;28;20442;-73
2022/09/04 10:09:44;;;;;;;4.07;3.77;;;;;;;;;;5055476;28;20564;-73
2022/09/04 10:12:30;;;;;;;4.40;4.10;;;;;;;;;;5055932;28;20454;-73
2022/09/04 10:15:23;;;;;;;5.00;4.47;;;;;;;;;;5055139;28;20433;-73
2022/09/04 10:18:05;;;;;;;3.53;3.20;;;;;;;;;;5055705;28;20513;-72
2022/09/04 10:20:48;;;;;;;3.77;3.47;;;;;;;;;;5055327;28;20471;-72
2022/09/04 10:23:30;;;;;;;9.27;7.83;;;;;;;;;;5042800;28;20478;-73
2022/09/04 10:26:04;;;;;;;3.90;3.60;;;;;;;;;;5053036;28;20863;-73
2022/09/04 10:28:50;;;;;;;4.60;3.20;;;;;;;;;;5055323;28;20527;-73
2022/09/04 10:31:32;;;;;;;4.70;4.30;;;;;;;;;;5055151;28;20449;-74
2022/09/04 10:34:10;;;;;;;3.60;3.40;;;;;;;;;;5055350;28;20434;-73
2022/09/04 10:36:43;;;;;;;6.87;4.00;;;;;;;;;;5054815;28;20481;-73
2022/09/04 10:42:07;;;;;;;4.77;3.37;;;;;;;;;;5054619;28;20480;-74
2022/09/04 10:44:44;;;;;;;3.57;3.30;;;;;;;;;;5055252;28;20522;-74
2022/09/04 10:47:19;;;;;;;3.30;3.00;;;;;;;;;;5054957;28;20545;-73
2022/09/04 10:50:05;;;;;;;5.27;3.37;;;;;;;;;;5053658;28;20517;-73
2022/09/04 10:52:53;;;;;;;3.07;2.87;;;;;;;;;;5054466;28;20510;-73
2022/09/04 10:55:27;;;;;;;3.30;3.00;;;;;;;;;;5053330;28;20461;-73
2022/09/04 10:58:09;;;;;;;3.57;3.27;;;;;;;;;;5054256;28;20426;-73
2022/09/04 11:00:49;;;;;;;3.67;3.30;;;;;;;;;;5052188;28;20541;-73
2022/09/04 11:03:37;;;;;;;3.30;3.00;;;;;;;;;;5054506;28;20470;-73
2022/09/04 11:06:25;;;;;;;3.37;3.03;;;;;;;;;;5054594;28;20442;-73
2022/09/04 11:09:11;;;;;;;3.23;2.93;;;;;;;;;;5053687;28;20492;-73
2022/09/04 11:11:49;;;;;;;3.10;2.90;;;;;;;;;;5054002;28;20477;-73
2022/09/04 11:14:27;;;;;;;3.17;2.87;;;;;;;;;;5053842;28;20923;-74
2022/09/04 11:17:14;;;;;;;4.17;3.30;;;;;;;;;;5091254;27;20528;-72
2022/09/04 11:20:00;;;;;;;3.40;3.20;;;;;;;;;;5091177;28;20513;-72
2022/09/04 11:22:50;;;;;;;4.00;3.60;;;;;;;;;;5090466;28;20446;-71
2022/09/04 11:25:44;;;;;;;3.80;3.50;;;;;;;;;;5073889;28;20447;-72
2022/09/04 11:28:15;;;;;;;3.90;3.10;;;;;;;;;;5066300;28;20491;-72
2022/09/04 11:30:52;;;;;;;2.93;2.73;;;;;;;;;;5090209;28;20918;-72
2022/09/04 11:33:38;;;;;;;3.37;3.07;;;;;;;;;;5090321;28;20911;-72
2022/09/04 11:36:20;;;;;;;3.00;2.80;;;;;;;;;;5090401;28;20488;-73
2022/09/04 11:39:14;;;;;;;4.03;3.23;;;;;;;;;;5088875;28;20544;-72
2022/09/04 11:42:07;;;;;;;3.10;2.90;;;;;;;;;;5090448;28;20577;-74
2022/09/04 11:44:52;;;;;;;3.47;3.23;;;;;;;;;;5090121;28;20932;-73
2022/09/04 11:47:37;;;;;;;3.30;3.03;;;;;;;;;;5090311;28;20479;-73
2022/09/04 11:50:16;;;;;;;2.97;2.77;;;;;;;;;;5089762;28;20603;-74
2022/09/04 11:52:49;;;;;;;3.30;2.70;;;;;;;;;;5090274;28;20447;-73
2022/09/04 11:55:27;;;;;;;4.60;3.33;;;;;;;;;;5090342;28;20463;-73
2022/09/04 11:58:03;;;;;;;3.43;3.13;;;;;;;;;;5089962;28;20919;-73
2022/09/04 12:00:33;;;;;;;4.10;2.97;;;;;;;;;;5090009;28;20429;-73
2022/09/04 12:03:12;;;;;;;2.70;2.50;;;;;;;;;;5090084;28;20435;-72
2022/09/04 12:05:46;;;;;;;2.93;2.73;;;;;;;;;;5089874;28;20440;-73
2022/09/04 12:08:21;;;;;;;3.63;2.63;;;;;;;;;;5090108;28;20520;-73
2022/09/04 12:10:55;;;;;;;2.67;2.47;;;;;;;;;;5089816;28;20412;-73
2022/09/04 12:13:39;;;;;;;3.07;2.60;;;;;;;;;;5089909;28;20733;-73
2022/09/04 12:16:18;;;;;;;2.63;2.50;;;;;;;;;;5089720;28;20592;-74
2022/09/04 12:19:04;;;;;;;2.37;2.23;;;;;;;;;;5089960;28;20418;-74
2022/09/04 12:21:41;;;;;;;3.97;3.67;;;;;;;;;;5089695;28;20457;-74
2022/09/04 12:24:20;;;;;;;3.70;3.40;;;;;;;;;;5089268;28;20503;-73
2022/09/04 12:27:02;;;;;;;3.00;2.80;;;;;;;;;;5085303;28;20488;-73
2022/09/04 12:29:44;;;;;;;3.00;2.70;;;;;;;;;;5074200;28;20532;-73
2022/09/04 12:32:22;;;;;;;7.63;6.87;;;;;;;;;;5074563;28;20538;-74
2022/09/04 12:34:56;;;;;;;3.97;3.27;;;;;;;;;;5075764;28;20971;-74
2022/09/04 12:37:42;;;;;;;11.50;7.17;;;;;;;;;;5076048;28;20526;-74
2022/09/04 12:40:24;;;;;;;3.00;2.80;;;;;;;;;;5069542;28;20444;-74
2022/09/04 12:42:57;;;;;;;3.30;3.00;;;;;;;;;;5075293;28;20450;-74
2022/09/04 12:45:27;;;;;;;5.10;2.93;;;;;;;;;;5076266;28;20498;-74
2022/09/04 12:48:02;;;;;;;3.17;2.93;;;;;;;;;;5076536;28;20492;-74
2022/09/04 12:50:33;;;;;;;2.47;2.37;;;;;;;;;;5075878;28;20738;-73
2022/09/04 12:53:15;;;;;;;3.43;3.23;;;;;;;;;;5076073;28;20402;-73
2022/09/04 12:55:47;;;;;;;2.57;2.40;;;;;;;;;;5075943;28;20444;-74
2022/09/04 12:58:20;;;;;;;4.40;3.43;;;;;;;;;;5075717;28;20405;-74
2022/09/04 13:00:56;;;;;;;3.30;3.10;;;;;;;;;;5076475;28;20407;-74
2022/09/04 13:03:29;;;;;;;3.17;2.73;;;;;;;;;;5076378;28;20920;-74
2022/09/04 13:06:03;;;;;;;2.67;2.47;;;;;;;;;;5077422;28;20491;-76
2022/09/04 13:08:35;;;;;;;3.33;3.13;;;;;;;;;;5076427;28;20436;-74
2022/09/04 13:11:12;;;;;;;3.27;3.07;;;;;;;;;;5075968;28;20487;-74
2022/09/04 13:13:42;;;;;;;2.70;2.60;;;;;;;;;;5076480;28;20411;-75
2022/09/04 13:16:14;;;;;;;2.90;2.40;;;;;;;;;;5076832;28;20495;-74
2022/09/04 13:18:50;;;;;;;3.20;3.00;;;;;;;;;;5076992;28;20463;-74
2022/09/04 13:21:24;;;;;;;3.30;3.10;;;;;;;;;;5076079;28;20399;-74
2022/09/04 13:23:58;;;;;;;3.73;2.60;;;;;;;;;;5075998;28;20429;-75
2022/09/04 13:26:32;;;;;;;11.70;8.73;;;;;;;;;;5076160;28;20753;-75
2022/09/04 13:29:16;;;;;;;4.13;2.90;;;;;;;;;;5075513;28;20764;-75
2022/09/04 13:31:54;;;;;;;3.30;3.10;;;;;;;;;;5075667;28;20443;-75
2022/09/04 13:34:27;;;;;;;3.50;3.20;;;;;;;;;;5075546;28;20427;-74
2022/09/04 13:37:03;;;;;;;3.80;3.50;;;;;;;;;;5075679;28;20470;-74
2022/09/04 13:39:49;;;;;;;3.90;2.90;;;;;;;;;;5074638;28;20878;-74
2022/09/04 13:42:27;;;;;;;4.37;2.97;;;;;;;;;;5076521;28;20418;-75
2022/09/04 13:45:00;;;;;;;3.67;2.97;;;;;;;;;;5076848;28;20861;-74
2022/09/04 13:47:29;;;;;;;4.67;3.47;;;;;;;;;;5076891;28;20504;-75
2022/09/04 13:50:08;;;;;;;3.77;3.30;;;;;;;;;;5075951;28;20530;-75
2022/09/04 13:52:39;;;;;;;3.33;3.03;;;;;;;;;;5076913;28;20434;-75
2022/09/04 13:55:08;;;;;;;3.83;3.10;;;;;;;;;;5076563;28;20458;-75
2022/09/04 13:57:37;;;;;;;4.93;2.87;;;;;;;;;;5075858;28;20460;-76
2022/09/04 14:00:06;;;;;;;9.67;8.57;;;;;;;;;;5075707;28;20941;-75
2022/09/04 14:02:35;;;;;;;5.47;4.90;;;;;;;;;;5075078;28;20526;-75
2022/09/04 14:05:06;;;;;;;4.30;3.90;;;;;;;;;;5075008;28;20455;-75
2022/09/04 14:07:35;;;;;;;3.07;2.87;;;;;;;;;;5074790;28;20444;-75
2022/09/04 14:10:04;;;;;;;2.80;2.60;;;;;;;;;;5074296;28;20419;-74
2022/09/04 14:12:48;;;;;;;3.03;2.83;;;;;;;;;;5074556;28;21000;-75
2022/09/04 14:15:33;;;;;;;2.87;2.67;;;;;;;;;;5074489;28;20496;-75
2022/09/04 14:18:24;;;;;;;5.23;2.67;;;;;;;;;;5074619;28;20458;-75
2022/09/04 14:20:57;;;;;;;5.07;4.50;;;;;;;;;;5074571;28;20521;-74
2022/09/04 14:23:31;;;;;;;2.90;2.70;;;;;;;;;;5074886;28;20431;-76
2022/09/04 14:26:00;;;;;;;2.80;2.60;;;;;;;;;;5074149;28;20483;-75
2022/09/04 14:28:31;;;;;;;6.63;2.90;;;;;;;;;;5074268;28;20882;-75
2022/09/04 14:31:04;;;;;;;6.70;2.67;;;;;;;;;;5074850;28;20414;-75
2022/09/04 14:33:35;;;;;;;5.70;2.80;;;;;;;;;;5074641;28;20430;-76
2022/09/04 14:36:13;;;;;;;2.60;2.40;;;;;;;;;;5073719;28;20445;-75
2022/09/04 14:38:49;;;;;;;3.70;2.73;;;;;;;;;;5074251;28;20413;-74
2022/09/04 14:41:30;;;;;;;6.50;2.90;;;;;;;;;;5073974;28;20978;-75
2022/09/04 14:44:05;;;;;;;3.07;2.57;;;;;;;;;;5074780;28;20435;-74
2022/09/04 14:46:37;;;;;;;3.00;2.80;;;;;;;;;;5074344;28;20459;-74
2022/09/04 14:49:06;;;;;;;3.77;3.47;;;;;;;;;;5073904;28;20431;-74
2022/09/04 14:51:36;;;;;;;3.20;2.90;;;;;;;;;;5073373;28;20929;-75
2022/09/04 14:54:04;;;;;;;2.90;2.70;;;;;;;;;;5074263;28;20397;-75
2022/09/04 14:56:34;;;;;;;2.80;2.60;;;;;;;;;;5073507;28;20492;-76
2022/09/04 14:59:07;;;;;;;3.37;3.07;;;;;;;;;;5073844;28;20417;-75
2022/09/04 15:01:36;;;;;;;4.20;2.87;;;;;;;;;;5073262;28;20786;-76
2022/09/04 15:04:06;;;;;;;7.03;4.00;;;;;;;;;;5073245;28;20486;-70
2022/09/04 15:06:36;;;;;;;7.63;3.53;;;;;;;;;;5072697;28;20417;-72
2022/09/04 15:09:18;;;;;;;3.00;2.80;;;;;;;;;;5073236;28;20409;-73
2022/09/04 15:11:46;;;;;;;3.80;3.60;;;;;;;;;;5073414;28;20435;-73
2022/09/04 15:14:27;;;;;;;3.60;3.30;;;;;;;;;;5073205;28;20445;-74
2022/09/04 15:16:58;;;;;;;3.33;3.00;;;;;;;;;;5072971;28;20495;-73
2022/09/04 15:19:34;;;;;;;3.20;3.00;;;;;;;;;;5073178;28;20407;-73
2022/09/04 15:22:05;;;;;;;3.43;3.13;;;;;;;;;;5073313;28;20480;-73
2022/09/04 15:24:36;;;;;;;7.00;3.10;;;;;;;;;;5073523;28;20452;-72
2022/09/04 15:27:11;;;;;;;4.70;3.63;;;;;;;;;;5073398;28;20437;-73
2022/09/04 15:29:40;;;;;;;2.90;2.70;;;;;;;;;;5073316;28;20470;-74
2022/09/04 15:32:08;;;;;;;3.50;3.00;;;;;;;;;;5073675;28;20810;-73
2022/09/04 15:34:36;;;;;;;2.90;2.70;;;;;;;;;;5073097;28;20988;-73
2022/09/04 15:37:12;;;;;;;3.43;3.13;;;;;;;;;;5073412;28;20550;-73
2022/09/04 15:39:47;;;;;;;2.70;2.50;;;;;;;;;;5073193;28;20486;-74
2022/09/04 15:42:31;;;;;;;2.93;2.73;;;;;;;;;;5072268;28;20429;-73
2022/09/04 15:45:00;;;;;;;3.37;3.07;;;;;;;;;;5072954;28;20482;-73